sensor_id;sensor_type;location;lat;lon;timestamp;P1;durP1;ratioP1;P2;durP2;ratioP2
3257;SDS011;1641;51.306;12.384;2023-03-26T00:02:08;1.10;;;0.98;;
3257;SDS011;1641;51.306;12.384;2023-03-26T00:04:33;2.28;;;1.50;;
3257;SDS011;1641;51.306;12.384;2023-03-26T00:06:58;5.25;;;2.33;;
3257;SDS011;1641;51.306;12.384;2023-03-26T00:09:24;1.83;;;1.60;;
3257;SDS011;1641;51.306;12.384;2023-03-26T00:11:49;2.83;;;1.38;;
3257;SDS011;1641;51.306;12.384;2023-03-26T00:14:14;1.45;;;1.23;;
3257;SDS011;1641;51.306;12.384;2023-03-26T00:16:41;5.07;;;2.42;;
3257;SDS011;1641;51.306;12.384;2023-03-26T00:19:07;4.13;;;1.25;;
3257;SDS011;1641;51.306;12.384;2023-03-26T00:21:33;3.08;;;1.40;;
3257;SDS011;1641;51.306;12.384;2023-03-26T00:24:08;9.32;;;1.73;;
3257;SDS011;1641;51.306;12.384;2023-03-26T00:26:38;6.25;;;2.58;;
3257;SDS011;1641;51.306;12.384;2023-03-26T00:29:05;6.25;;;2.35;;
3257;SDS011;1641;51.306;12.384;2023-03-26T00:31:32;4.50;;;2.00;;
3257;SDS011;1641;51.306;12.384;2023-03-26T00:33:58;3.25;;;1.50;;
3257;SDS011;1641;51.306;12.384;2023-03-26T00:36:26;3.92;;;1.40;;
3257;SDS011;1641;51.306;12.384;2023-03-26T00:38:52;3.53;;;2.03;;
3257;SDS011;1641;51.306;12.384;2023-03-26T00:41:18;4.32;;;2.03;;
3257;SDS011;1641;51.306;12.384;2023-03-26T00:43:50;3.92;;;1.40;;
3257;SDS011;1641;51.306;12.384;2023-03-26T00:46:23;4.10;;;1.88;;
3257;SDS011;1641;51.306;12.384;2023-03-26T00:48:49;2.80;;;1.17;;
3257;SDS011;1641;51.306;12.384;2023-03-26T00:51:15;3.42;;;1.00;;
3257;SDS011;1641;51.306;12.384;2023-03-26T00:53:41;2.10;;;1.30;;
3257;SDS011;1641;51.306;12.384;2023-03-26T00:56:08;2.65;;;1.25;;
3257;SDS011;1641;51.306;12.384;2023-03-26T00:58:34;2.67;;;0.90;;
3257;SDS011;1641;51.306;12.384;2023-03-26T01:01:01;1.00;;;0.90;;
3257;SDS011;1641;51.306;12.384;2023-03-26T01:03:33;3.65;;;1.40;;
3257;SDS011;1641;51.306;12.384;2023-03-26T01:06:10;3.05;;;1.00;;
3257;SDS011;1641;51.306;12.384;2023-03-26T01:08:45;1.77;;;1.08;;
3257;SDS011;1641;51.306;12.384;2023-03-26T01:11:14;1.80;;;1.00;;
3257;SDS011;1641;51.306;12.384;2023-03-26T01:13:43;2.80;;;1.00;;
3257;SDS011;1641;51.306;12.384;2023-03-26T01:19:27;1.77;;;1.00;;
3257;SDS011;1641;51.306;12.384;2023-03-26T01:21:57;2.38;;;1.30;;
3257;SDS011;1641;51.306;12.384;2023-03-26T01:24:23;2.85;;;1.38;;
3257;SDS011;1641;51.306;12.384;2023-03-26T01:29:32;1.00;;;1.00;;
3257;SDS011;1641;51.306;12.384;2023-03-26T01:37:51;3.13;;;1.25;;
3257;SDS011;1641;51.306;12.384;2023-03-26T01:43:11;2.20;;;1.08;;
3257;SDS011;1641;51.306;12.384;2023-03-26T01:45:45;1.23;;;1.10;;
3257;SDS011;1641;51.306;12.384;2023-03-26T01:48:13;4.10;;;1.40;;
3257;SDS011;1641;51.306;12.384;2023-03-26T01:50:38;2.20;;;1.40;;
3257;SDS011;1641;51.306;12.384;2023-03-26T01:53:04;3.05;;;1.48;;
3257;SDS011;1641;51.306;12.384;2023-03-26T01:55:35;1.30;;;1.05;;
3257;SDS011;1641;51.306;12.384;2023-03-26T01:58:29;1.60;;;1.50;;
3257;SDS011;1641;51.306;12.384;2023-03-26T02:01:27;2.58;;;1.15;;
3257;SDS011;1641;51.306;12.384;2023-03-26T02:06:31;2.50;;;1.50;;
3257;SDS011;1641;51.306;12.384;2023-03-26T02:09:06;2.38;;;1.20;;
3257;SDS011;1641;51.306;12.384;2023-03-26T02:11:36;1.30;;;1.20;;
3257;SDS011;1641;51.306;12.384;2023-03-26T02:14:04;5.70;;;1.55;;
3257;SDS011;1641;51.306;12.384;2023-03-26T02:16:31;2.45;;;1.25;;
3257;SDS011;1641;51.306;12.384;2023-03-26T02:18:56;4.97;;;1.35;;
3257;SDS011;1641;51.306;12.384;2023-03-26T02:21:23;2.78;;;1.83;;
3257;SDS011;1641;51.306;12.384;2023-03-26T02:23:50;1.92;;;1.50;;
3257;SDS011;1641;51.306;12.384;2023-03-26T02:26:21;2.97;;;1.35;;
3257;SDS011;1641;51.306;12.384;2023-03-26T02:28:47;3.90;;;1.83;;
3257;SDS011;1641;51.306;12.384;2023-03-26T02:31:13;3.60;;;1.33;;
3257;SDS011;1641;51.306;12.384;2023-03-26T02:33:40;1.45;;;1.10;;
3257;SDS011;1641;51.306;12.384;2023-03-26T02:36:05;1.88;;;1.25;;
3257;SDS011;1641;51.306;12.384;2023-03-26T02:38:32;6.82;;;1.80;;
3257;SDS011;1641;51.306;12.384;2023-03-26T02:40:59;1.48;;;1.10;;
3257;SDS011;1641;51.306;12.384;2023-03-26T02:43:25;2.33;;;1.27;;
3257;SDS011;1641;51.306;12.384;2023-03-26T02:45:50;2.63;;;1.30;;
3257;SDS011;1641;51.306;12.384;2023-03-26T02:48:15;1.77;;;1.25;;
3257;SDS011;1641;51.306;12.384;2023-03-26T02:50:41;2.35;;;1.70;;
3257;SDS011;1641;51.306;12.384;2023-03-26T02:53:07;5.63;;;1.88;;
3257;SDS011;1641;51.306;12.384;2023-03-26T02:55:32;2.63;;;1.45;;
3257;SDS011;1641;51.306;12.384;2023-03-26T02:57:57;1.88;;;1.63;;
3257;SDS011;1641;51.306;12.384;2023-03-26T03:00:22;4.97;;;1.80;;
3257;SDS011;1641;51.306;12.384;2023-03-26T03:02:48;1.67;;;1.55;;
3257;SDS011;1641;51.306;12.384;2023-03-26T03:05:14;4.07;;;1.67;;
3257;SDS011;1641;51.306;12.384;2023-03-26T03:07:39;4.95;;;1.40;;
3257;SDS011;1641;51.306;12.384;2023-03-26T03:10:05;2.47;;;1.42;;
3257;SDS011;1641;51.306;12.384;2023-03-26T03:12:33;2.25;;;1.45;;
3257;SDS011;1641;51.306;12.384;2023-03-26T03:14:58;5.20;;;1.60;;
3257;SDS011;1641;51.306;12.384;2023-03-26T03:17:24;4.38;;;1.70;;
3257;SDS011;1641;51.306;12.384;2023-03-26T03:19:49;4.45;;;1.55;;
3257;SDS011;1641;51.306;12.384;2023-03-26T03:22:14;3.28;;;1.98;;
3257;SDS011;1641;51.306;12.384;2023-03-26T03:24:40;5.55;;;1.98;;
3257;SDS011;1641;51.306;12.384;2023-03-26T03:27:07;5.22;;;1.80;;
3257;SDS011;1641;51.306;12.384;2023-03-26T03:29:33;6.43;;;1.27;;
3257;SDS011;1641;51.306;12.384;2023-03-26T03:31:58;3.05;;;1.50;;
3257;SDS011;1641;51.306;12.384;2023-03-26T03:34:24;3.63;;;1.35;;
3257;SDS011;1641;51.306;12.384;2023-03-26T03:36:49;2.95;;;1.58;;
3257;SDS011;1641;51.306;12.384;2023-03-26T03:39:14;3.67;;;1.38;;
3257;SDS011;1641;51.306;12.384;2023-03-26T03:41:40;2.15;;;1.75;;
3257;SDS011;1641;51.306;12.384;2023-03-26T03:44:05;3.30;;;1.65;;
3257;SDS011;1641;51.306;12.384;2023-03-26T03:46:30;2.15;;;1.20;;
3257;SDS011;1641;51.306;12.384;2023-03-26T03:48:56;3.40;;;2.28;;
3257;SDS011;1641;51.306;12.384;2023-03-26T03:51:21;2.60;;;1.45;;
3257;SDS011;1641;51.306;12.384;2023-03-26T03:53:47;3.28;;;1.55;;
3257;SDS011;1641;51.306;12.384;2023-03-26T03:56:13;6.50;;;1.65;;
3257;SDS011;1641;51.306;12.384;2023-03-26T03:58:41;5.60;;;1.70;;
3257;SDS011;1641;51.306;12.384;2023-03-26T04:01:09;3.80;;;1.55;;
3257;SDS011;1641;51.306;12.384;2023-03-26T04:03:37;2.60;;;1.35;;
3257;SDS011;1641;51.306;12.384;2023-03-26T04:06:08;5.05;;;1.63;;
3257;SDS011;1641;51.306;12.384;2023-03-26T04:08:35;4.15;;;1.50;;
3257;SDS011;1641;51.306;12.384;2023-03-26T04:11:00;2.42;;;1.20;;
3257;SDS011;1641;51.306;12.384;2023-03-26T04:13:29;4.35;;;1.20;;
3257;SDS011;1641;51.306;12.384;2023-03-26T04:15:54;2.28;;;1.40;;
3257;SDS011;1641;51.306;12.384;2023-03-26T04:18:20;4.05;;;1.55;;
3257;SDS011;1641;51.306;12.384;2023-03-26T04:20:46;3.88;;;1.33;;
3257;SDS011;1641;51.306;12.384;2023-03-26T04:23:12;4.13;;;1.48;;
3257;SDS011;1641;51.306;12.384;2023-03-26T04:25:39;2.15;;;1.20;;
3257;SDS011;1641;51.306;12.384;2023-03-26T04:28:06;4.45;;;1.35;;
3257;SDS011;1641;51.306;12.384;2023-03-26T04:30:33;4.32;;;1.35;;
3257;SDS011;1641;51.306;12.384;2023-03-26T04:33:00;2.78;;;1.15;;
3257;SDS011;1641;51.306;12.384;2023-03-26T04:38:01;2.15;;;1.15;;
3257;SDS011;1641;51.306;12.384;2023-03-26T04:40:30;2.05;;;1.30;;
3257;SDS011;1641;51.306;12.384;2023-03-26T04:42:59;1.88;;;1.13;;
3257;SDS011;1641;51.306;12.384;2023-03-26T04:45:26;1.23;;;1.10;;
3257;SDS011;1641;51.306;12.384;2023-03-26T04:47:54;3.97;;;1.20;;
3257;SDS011;1641;51.306;12.384;2023-03-26T04:50:22;1.95;;;1.10;;
3257;SDS011;1641;51.306;12.384;2023-03-26T04:52:51;1.30;;;1.17;;
3257;SDS011;1641;51.306;12.384;2023-03-26T04:55:20;3.42;;;1.10;;
3257;SDS011;1641;51.306;12.384;2023-03-26T04:57:51;2.30;;;1.05;;
3257;SDS011;1641;51.306;12.384;2023-03-26T05:00:20;1.70;;;0.90;;
3257;SDS011;1641;51.306;12.384;2023-03-26T05:02:45;3.70;;;1.00;;
3257;SDS011;1641;51.306;12.384;2023-03-26T05:05:14;1.17;;;1.00;;
3257;SDS011;1641;51.306;12.384;2023-03-26T05:07:43;4.00;;;1.00;;
3257;SDS011;1641;51.306;12.384;2023-03-26T05:10:12;1.60;;;0.98;;
3257;SDS011;1641;51.306;12.384;2023-03-26T05:12:45;2.47;;;1.40;;
3257;SDS011;1641;51.306;12.384;2023-03-26T05:15:11;1.13;;;1.02;;
3257;SDS011;1641;51.306;12.384;2023-03-26T05:17:40;1.10;;;0.70;;
3257;SDS011;1641;51.306;12.384;2023-03-26T05:20:14;2.15;;;1.08;;
3257;SDS011;1641;51.306;12.384;2023-03-26T05:22:48;1.42;;;1.00;;
3257;SDS011;1641;51.306;12.384;2023-03-26T05:25:14;2.75;;;0.88;;
3257;SDS011;1641;51.306;12.384;2023-03-26T05:27:42;1.40;;;0.98;;
3257;SDS011;1641;51.306;12.384;2023-03-26T05:30:07;0.90;;;0.80;;
3257;SDS011;1641;51.306;12.384;2023-03-26T05:32:36;2.53;;;1.15;;
3257;SDS011;1641;51.306;12.384;2023-03-26T05:35:02;2.40;;;0.80;;
3257;SDS011;1641;51.306;12.384;2023-03-26T05:37:28;1.88;;;1.10;;
3257;SDS011;1641;51.306;12.384;2023-03-26T05:39:55;3.67;;;1.50;;
3257;SDS011;1641;51.306;12.384;2023-03-26T05:42:24;1.23;;;1.13;;
3257;SDS011;1641;51.306;12.384;2023-03-26T05:44:50;2.40;;;1.15;;
3257;SDS011;1641;51.306;12.384;2023-03-26T05:47:15;2.53;;;1.27;;
3257;SDS011;1641;51.306;12.384;2023-03-26T05:49:40;1.33;;;0.98;;
3257;SDS011;1641;51.306;12.384;2023-03-26T05:52:05;2.03;;;1.20;;
3257;SDS011;1641;51.306;12.384;2023-03-26T05:54:31;2.50;;;1.27;;
3257;SDS011;1641;51.306;12.384;2023-03-26T05:57:02;2.83;;;1.10;;
3257;SDS011;1641;51.306;12.384;2023-03-26T06:01:53;5.00;;;1.33;;
3257;SDS011;1641;51.306;12.384;2023-03-26T06:04:18;3.47;;;1.88;;
3257;SDS011;1641;51.306;12.384;2023-03-26T06:06:47;2.53;;;1.15;;
3257;SDS011;1641;51.306;12.384;2023-03-26T06:09:12;1.13;;;1.00;;
3257;SDS011;1641;51.306;12.384;2023-03-26T06:11:38;0.93;;;0.82;;
3257;SDS011;1641;51.306;12.384;2023-03-26T06:14:04;2.83;;;1.20;;
3257;SDS011;1641;51.306;12.384;2023-03-26T06:16:36;1.67;;;1.40;;
3257;SDS011;1641;51.306;12.384;2023-03-26T06:19:01;2.58;;;1.30;;
3257;SDS011;1641;51.306;12.384;2023-03-26T06:21:27;3.03;;;1.17;;
3257;SDS011;1641;51.306;12.384;2023-03-26T06:23:52;2.03;;;1.33;;
3257;SDS011;1641;51.306;12.384;2023-03-26T06:26:18;2.42;;;1.10;;
3257;SDS011;1641;51.306;12.384;2023-03-26T06:28:43;1.45;;;0.90;;
3257;SDS011;1641;51.306;12.384;2023-03-26T06:31:10;1.05;;;1.05;;
3257;SDS011;1641;51.306;12.384;2023-03-26T06:33:51;2.38;;;1.52;;
3257;SDS011;1641;51.306;12.384;2023-03-26T06:36:20;5.00;;;2.80;;
3257;SDS011;1641;51.306;12.384;2023-03-26T06:38:45;1.30;;;1.15;;
3257;SDS011;1641;51.306;12.384;2023-03-26T06:41:10;7.72;;;4.00;;
3257;SDS011;1641;51.306;12.384;2023-03-26T06:43:36;1.55;;;1.38;;
3257;SDS011;1641;51.306;12.384;2023-03-26T06:46:03;2.58;;;1.45;;
3257;SDS011;1641;51.306;12.384;2023-03-26T06:48:29;2.30;;;1.17;;
3257;SDS011;1641;51.306;12.384;2023-03-26T06:50:58;1.85;;;1.13;;
3257;SDS011;1641;51.306;12.384;2023-03-26T06:53:26;2.08;;;1.10;;
3257;SDS011;1641;51.306;12.384;2023-03-26T06:55:52;3.60;;;1.33;;
3257;SDS011;1641;51.306;12.384;2023-03-26T06:58:18;1.90;;;1.13;;
3257;SDS011;1641;51.306;12.384;2023-03-26T07:00:45;1.65;;;1.20;;
3257;SDS011;1641;51.306;12.384;2023-03-26T07:03:11;3.50;;;1.27;;
3257;SDS011;1641;51.306;12.384;2023-03-26T07:05:37;4.40;;;1.67;;
3257;SDS011;1641;51.306;12.384;2023-03-26T07:08:04;6.90;;;3.33;;
3257;SDS011;1641;51.306;12.384;2023-03-26T07:10:35;4.22;;;1.70;;
3257;SDS011;1641;51.306;12.384;2023-03-26T07:13:17;4.00;;;2.05;;
3257;SDS011;1641;51.306;12.384;2023-03-26T07:15:42;10.23;;;5.65;;
3257;SDS011;1641;51.306;12.384;2023-03-26T07:18:08;8.05;;;2.55;;
3257;SDS011;1641;51.306;12.384;2023-03-26T07:20:37;3.58;;;1.67;;
3257;SDS011;1641;51.306;12.384;2023-03-26T07:23:11;6.03;;;1.95;;
3257;SDS011;1641;51.306;12.384;2023-03-26T07:31:27;10.98;;;1.95;;
3257;SDS011;1641;51.306;12.384;2023-03-26T07:34:10;8.15;;;2.20;;
3257;SDS011;1641;51.306;12.384;2023-03-26T07:36:56;4.00;;;1.88;;
3257;SDS011;1641;51.306;12.384;2023-03-26T07:39:33;3.47;;;2.05;;
3257;SDS011;1641;51.306;12.384;2023-03-26T07:45:20;6.22;;;1.48;;
3257;SDS011;1641;51.306;12.384;2023-03-26T07:47:56;6.97;;;2.83;;
3257;SDS011;1641;51.306;12.384;2023-03-26T07:50:32;11.90;;;2.75;;
3257;SDS011;1641;51.306;12.384;2023-03-26T07:53:13;4.95;;;1.65;;
3257;SDS011;1641;51.306;12.384;2023-03-26T07:55:46;8.10;;;2.63;;
3257;SDS011;1641;51.306;12.384;2023-03-26T08:27:00;7.07;;;2.20;;
3257;SDS011;1641;51.306;12.384;2023-03-26T08:29:50;6.45;;;2.17;;
3257;SDS011;1641;51.306;12.384;2023-03-26T08:32:23;9.05;;;3.25;;
3257;SDS011;1641;51.306;12.384;2023-03-26T08:34:49;7.93;;;1.98;;
3257;SDS011;1641;51.306;12.384;2023-03-26T08:37:19;9.63;;;3.30;;
3257;SDS011;1641;51.306;12.384;2023-03-26T08:39:48;5.68;;;2.00;;
3257;SDS011;1641;51.306;12.384;2023-03-26T08:53:45;9.52;;;2.72;;
3257;SDS011;1641;51.306;12.384;2023-03-26T09:05:44;13.68;;;3.42;;
3257;SDS011;1641;51.306;12.384;2023-03-26T09:11:49;5.53;;;2.00;;
3257;SDS011;1641;51.306;12.384;2023-03-26T09:18:35;5.15;;;2.03;;
3257;SDS011;1641;51.306;12.384;2023-03-26T09:21:10;12.70;;;2.97;;
3257;SDS011;1641;51.306;12.384;2023-03-26T09:35:00;7.53;;;2.50;;
3257;SDS011;1641;51.306;12.384;2023-03-26T09:43:44;10.25;;;2.92;;
3257;SDS011;1641;51.306;12.384;2023-03-26T10:00:44;7.35;;;2.40;;
3257;SDS011;1641;51.306;12.384;2023-03-26T10:06:01;9.43;;;3.08;;
3257;SDS011;1641;51.306;12.384;2023-03-26T10:11:22;10.63;;;2.90;;
3257;SDS011;1641;51.306;12.384;2023-03-26T10:22:25;8.05;;;2.83;;
3257;SDS011;1641;51.306;12.384;2023-03-26T10:27:57;6.32;;;2.70;;
3257;SDS011;1641;51.306;12.384;2023-03-26T10:31:00;7.88;;;2.78;;
3257;SDS011;1641;51.306;12.384;2023-03-26T10:36:24;9.45;;;2.90;;
3257;SDS011;1641;51.306;12.384;2023-03-26T10:50:07;9.45;;;2.22;;
3257;SDS011;1641;51.306;12.384;2023-03-26T10:52:58;6.90;;;2.83;;
3257;SDS011;1641;51.306;12.384;2023-03-26T10:55:47;5.32;;;2.25;;
3257;SDS011;1641;51.306;12.384;2023-03-26T10:58:25;10.02;;;2.50;;
3257;SDS011;1641;51.306;12.384;2023-03-26T11:00:58;8.70;;;2.45;;
3257;SDS011;1641;51.306;12.384;2023-03-26T11:03:42;6.85;;;2.40;;
3257;SDS011;1641;51.306;12.384;2023-03-26T11:17:09;7.30;;;3.05;;
3257;SDS011;1641;51.306;12.384;2023-03-26T11:19:57;5.63;;;2.33;;
3257;SDS011;1641;51.306;12.384;2023-03-26T11:22:38;9.02;;;2.65;;
3257;SDS011;1641;51.306;12.384;2023-03-26T11:25:19;9.38;;;2.78;;
3257;SDS011;1641;51.306;12.384;2023-03-26T11:34:12;5.22;;;2.05;;
3257;SDS011;1641;51.306;12.384;2023-03-26T11:36:42;6.75;;;2.17;;
3257;SDS011;1641;51.306;12.384;2023-03-26T11:41:39;12.05;;;2.42;;
3257;SDS011;1641;51.306;12.384;2023-03-26T11:47:04;10.27;;;3.35;;
3257;SDS011;1641;51.306;12.384;2023-03-26T11:49:36;5.22;;;1.80;;
3257;SDS011;1641;51.306;12.384;2023-03-26T11:52:03;9.27;;;2.22;;
3257;SDS011;1641;51.306;12.384;2023-03-26T11:54:30;3.55;;;1.50;;
3257;SDS011;1641;51.306;12.384;2023-03-26T12:00:06;7.22;;;2.10;;
3257;SDS011;1641;51.306;12.384;2023-03-26T12:05:46;5.43;;;2.03;;
3257;SDS011;1641;51.306;12.384;2023-03-26T12:11:09;3.42;;;1.83;;
3257;SDS011;1641;51.306;12.384;2023-03-26T12:16:56;7.03;;;2.30;;
3257;SDS011;1641;51.306;12.384;2023-03-26T12:22:33;7.20;;;2.25;;
3257;SDS011;1641;51.306;12.384;2023-03-26T12:30:42;6.60;;;2.22;;
3257;SDS011;1641;51.306;12.384;2023-03-26T12:33:25;3.78;;;1.50;;
3257;SDS011;1641;51.306;12.384;2023-03-26T12:35:56;8.38;;;2.67;;
3257;SDS011;1641;51.306;12.384;2023-03-26T12:38:30;13.35;;;3.00;;
3257;SDS011;1641;51.306;12.384;2023-03-26T12:41:13;14.32;;;3.40;;
3257;SDS011;1641;51.306;12.384;2023-03-26T12:43:50;8.82;;;1.92;;
3257;SDS011;1641;51.306;12.384;2023-03-26T12:46:24;7.95;;;2.42;;
3257;SDS011;1641;51.306;12.384;2023-03-26T12:49:05;8.63;;;2.45;;
3257;SDS011;1641;51.306;12.384;2023-03-26T13:02:23;8.48;;;1.85;;
3257;SDS011;1641;51.306;12.384;2023-03-26T13:16:34;13.05;;;7.70;;
3257;SDS011;1641;51.306;12.384;2023-03-26T13:19:17;9.52;;;4.07;;
3257;SDS011;1641;51.306;12.384;2023-03-26T13:22:12;8.07;;;4.18;;
3257;SDS011;1641;51.306;12.384;2023-03-26T13:35:54;6.47;;;1.88;;
3257;SDS011;1641;51.306;12.384;2023-03-26T13:38:34;6.15;;;2.13;;
3257;SDS011;1641;51.306;12.384;2023-03-26T13:46:28;5.88;;;2.50;;
3257;SDS011;1641;51.306;12.384;2023-03-26T13:49:12;8.38;;;2.40;;
3257;SDS011;1641;51.306;12.384;2023-03-26T13:56:48;4.15;;;1.75;;
3257;SDS011;1641;51.306;12.384;2023-03-26T13:59:25;4.95;;;1.90;;
3257;SDS011;1641;51.306;12.384;2023-03-26T14:01:57;5.25;;;1.60;;
3257;SDS011;1641;51.306;12.384;2023-03-26T14:04:37;5.30;;;2.60;;
3257;SDS011;1641;51.306;12.384;2023-03-26T14:12:52;7.78;;;1.80;;
3257;SDS011;1641;51.306;12.384;2023-03-26T14:25:46;7.68;;;1.95;;
3257;SDS011;1641;51.306;12.384;2023-03-26T14:28:28;6.88;;;2.60;;
3257;SDS011;1641;51.306;12.384;2023-03-26T14:31:22;7.78;;;2.88;;
3257;SDS011;1641;51.306;12.384;2023-03-26T14:34:02;3.33;;;1.63;;
3257;SDS011;1641;51.306;12.384;2023-03-26T14:45:38;3.97;;;2.00;;
3257;SDS011;1641;51.306;12.384;2023-03-26T14:53:43;6.43;;;2.08;;
3257;SDS011;1641;51.306;12.384;2023-03-26T14:59:00;5.80;;;2.30;;
3257;SDS011;1641;51.306;12.384;2023-03-26T15:16:30;3.70;;;1.75;;
3257;SDS011;1641;51.306;12.384;2023-03-26T15:22:38;10.88;;;2.60;;
3257;SDS011;1641;51.306;12.384;2023-03-26T15:25:35;6.43;;;2.13;;
3257;SDS011;1641;51.306;12.384;2023-03-26T15:45:32;4.88;;;1.80;;
3257;SDS011;1641;51.306;12.384;2023-03-26T15:50:37;5.82;;;2.10;;
3257;SDS011;1641;51.306;12.384;2023-03-26T15:56:24;9.80;;;3.00;;
3257;SDS011;1641;51.306;12.384;2023-03-26T15:59:13;4.95;;;2.33;;
3257;SDS011;1641;51.306;12.384;2023-03-26T16:07:34;4.60;;;1.67;;
3257;SDS011;1641;51.306;12.384;2023-03-26T16:10:17;9.65;;;2.65;;
3257;SDS011;1641;51.306;12.384;2023-03-26T16:15:52;7.82;;;3.13;;
3257;SDS011;1641;51.306;12.384;2023-03-26T16:18:42;5.97;;;1.88;;
3257;SDS011;1641;51.306;12.384;2023-03-26T16:29:14;3.88;;;1.73;;
3257;SDS011;1641;51.306;12.384;2023-03-26T16:34:41;5.55;;;2.83;;
3257;SDS011;1641;51.306;12.384;2023-03-26T16:39:57;6.90;;;2.50;;
3257;SDS011;1641;51.306;12.384;2023-03-26T16:45:47;5.50;;;2.13;;
3257;SDS011;1641;51.306;12.384;2023-03-26T16:51:04;3.30;;;1.73;;
3257;SDS011;1641;51.306;12.384;2023-03-26T16:53:52;6.82;;;1.70;;
3257;SDS011;1641;51.306;12.384;2023-03-26T16:56:44;4.72;;;2.08;;
3257;SDS011;1641;51.306;12.384;2023-03-26T16:59:43;3.25;;;2.25;;
3257;SDS011;1641;51.306;12.384;2023-03-26T17:02:30;4.05;;;2.58;;
3257;SDS011;1641;51.306;12.384;2023-03-26T17:05:05;5.35;;;2.92;;
3257;SDS011;1641;51.306;12.384;2023-03-26T17:07:54;4.75;;;2.30;;
3257;SDS011;1641;51.306;12.384;2023-03-26T17:13:06;4.40;;;2.60;;
3257;SDS011;1641;51.306;12.384;2023-03-26T17:16:00;6.90;;;2.50;;
3257;SDS011;1641;51.306;12.384;2023-03-26T17:18:32;7.53;;;2.92;;
3257;SDS011;1641;51.306;12.384;2023-03-26T17:21:18;9.57;;;2.70;;
3257;SDS011;1641;51.306;12.384;2023-03-26T17:24:10;5.75;;;2.42;;
3257;SDS011;1641;51.306;12.384;2023-03-26T17:32:12;6.35;;;2.45;;
3257;SDS011;1641;51.306;12.384;2023-03-26T17:42:36;7.05;;;2.63;;
3257;SDS011;1641;51.306;12.384;2023-03-26T17:47:41;3.33;;;2.25;;
3257;SDS011;1641;51.306;12.384;2023-03-26T17:50:13;4.20;;;2.55;;
3257;SDS011;1641;51.306;12.384;2023-03-26T17:55:33;5.25;;;3.42;;
3257;SDS011;1641;51.306;12.384;2023-03-26T17:58:06;6.38;;;3.10;;
3257;SDS011;1641;51.306;12.384;2023-03-26T18:00:43;4.83;;;2.60;;
3257;SDS011;1641;51.306;12.384;2023-03-26T18:03:22;5.75;;;4.07;;
3257;SDS011;1641;51.306;12.384;2023-03-26T18:05:56;12.65;;;11.02;;
3257;SDS011;1641;51.306;12.384;2023-03-26T18:17:26;14.52;;;10.30;;
3257;SDS011;1641;51.306;12.384;2023-03-26T18:20:03;8.45;;;4.10;;
3257;SDS011;1641;51.306;12.384;2023-03-26T18:22:30;14.43;;;7.68;;
3257;SDS011;1641;51.306;12.384;2023-03-26T18:24:57;6.75;;;4.60;;
3257;SDS011;1641;51.306;12.384;2023-03-26T18:27:24;5.45;;;3.90;;
3257;SDS011;1641;51.306;12.384;2023-03-26T18:32:22;5.32;;;4.18;;
3257;SDS011;1641;51.306;12.384;2023-03-26T18:34:55;14.13;;;11.23;;
3257;SDS011;1641;51.306;12.384;2023-03-26T18:37:22;9.77;;;6.32;;
3257;SDS011;1641;51.306;12.384;2023-03-26T18:42:41;6.05;;;3.72;;
3257;SDS011;1641;51.306;12.384;2023-03-26T18:45:22;7.65;;;5.53;;
3257;SDS011;1641;51.306;12.384;2023-03-26T18:47:57;9.15;;;5.60;;
3257;SDS011;1641;51.306;12.384;2023-03-26T18:50:26;19.27;;;12.00;;
3257;SDS011;1641;51.306;12.384;2023-03-26T18:52:55;11.75;;;6.75;;
3257;SDS011;1641;51.306;12.384;2023-03-26T18:55:25;14.88;;;8.05;;
3257;SDS011;1641;51.306;12.384;2023-03-26T18:57:52;6.18;;;3.55;;
3257;SDS011;1641;51.306;12.384;2023-03-26T19:00:25;5.20;;;3.38;;
3257;SDS011;1641;51.306;12.384;2023-03-26T19:03:05;4.38;;;3.60;;
3257;SDS011;1641;51.306;12.384;2023-03-26T19:05:32;5.72;;;2.92;;
3257;SDS011;1641;51.306;12.384;2023-03-26T19:08:00;7.65;;;3.42;;
3257;SDS011;1641;51.306;12.384;2023-03-26T19:10:29;5.78;;;3.75;;
3257;SDS011;1641;51.306;12.384;2023-03-26T19:12:56;7.18;;;5.10;;
3257;SDS011;1641;51.306;12.384;2023-03-26T19:15:26;5.00;;;4.43;;
3257;SDS011;1641;51.306;12.384;2023-03-26T19:17:59;7.82;;;5.43;;
3257;SDS011;1641;51.306;12.384;2023-03-26T19:20:50;5.10;;;3.45;;
3257;SDS011;1641;51.306;12.384;2023-03-26T19:23:30;4.80;;;3.55;;
3257;SDS011;1641;51.306;12.384;2023-03-26T19:26:07;7.35;;;3.20;;
3257;SDS011;1641;51.306;12.384;2023-03-26T19:28:53;3.80;;;2.50;;
3257;SDS011;1641;51.306;12.384;2023-03-26T19:31:36;3.38;;;2.75;;
3257;SDS011;1641;51.306;12.384;2023-03-26T19:37:47;10.25;;;6.97;;
3257;SDS011;1641;51.306;12.384;2023-03-26T19:42:53;8.45;;;6.15;;
3257;SDS011;1641;51.306;12.384;2023-03-26T19:45:21;6.10;;;4.70;;
3257;SDS011;1641;51.306;12.384;2023-03-26T19:47:48;6.15;;;4.90;;
3257;SDS011;1641;51.306;12.384;2023-03-26T19:50:31;6.60;;;3.97;;
3257;SDS011;1641;51.306;12.384;2023-03-26T19:55:51;4.60;;;2.80;;
3257;SDS011;1641;51.306;12.384;2023-03-26T19:58:27;4.88;;;2.33;;
3257;SDS011;1641;51.306;12.384;2023-03-26T20:00:56;3.78;;;2.40;;
3257;SDS011;1641;51.306;12.384;2023-03-26T20:03:23;3.55;;;2.00;;
3257;SDS011;1641;51.306;12.384;2023-03-26T20:05:55;3.05;;;1.83;;
3257;SDS011;1641;51.306;12.384;2023-03-26T20:08:20;2.67;;;1.70;;
3257;SDS011;1641;51.306;12.384;2023-03-26T20:10:51;2.55;;;1.90;;
3257;SDS011;1641;51.306;12.384;2023-03-26T20:13:18;3.78;;;2.35;;
3257;SDS011;1641;51.306;12.384;2023-03-26T20:15:44;2.50;;;2.17;;
3257;SDS011;1641;51.306;12.384;2023-03-26T20:18:15;2.70;;;2.10;;
3257;SDS011;1641;51.306;12.384;2023-03-26T20:20:41;4.05;;;2.17;;
3257;SDS011;1641;51.306;12.384;2023-03-26T20:23:16;4.72;;;2.95;;
3257;SDS011;1641;51.306;12.384;2023-03-26T20:25:46;3.20;;;2.22;;
3257;SDS011;1641;51.306;12.384;2023-03-26T20:31:23;4.28;;;3.20;;
3257;SDS011;1641;51.306;12.384;2023-03-26T20:37:01;10.65;;;7.03;;
3257;SDS011;1641;51.306;12.384;2023-03-26T20:39:36;9.00;;;7.28;;
3257;SDS011;1641;51.306;12.384;2023-03-26T20:42:03;9.95;;;7.53;;
3257;SDS011;1641;51.306;12.384;2023-03-26T20:44:28;9.43;;;6.82;;
3257;SDS011;1641;51.306;12.384;2023-03-26T20:47:13;10.55;;;6.82;;
3257;SDS011;1641;51.306;12.384;2023-03-26T20:49:47;10.27;;;6.80;;
3257;SDS011;1641;51.306;12.384;2023-03-26T20:52:12;9.10;;;7.03;;
3257;SDS011;1641;51.306;12.384;2023-03-26T20:54:51;8.82;;;7.15;;
3257;SDS011;1641;51.306;12.384;2023-03-26T20:57:19;7.05;;;6.22;;
3257;SDS011;1641;51.306;12.384;2023-03-26T20:59:44;8.13;;;5.38;;
3257;SDS011;1641;51.306;12.384;2023-03-26T21:02:09;7.05;;;6.07;;
3257;SDS011;1641;51.306;12.384;2023-03-26T21:04:36;7.80;;;5.10;;
3257;SDS011;1641;51.306;12.384;2023-03-26T21:07:01;7.70;;;5.45;;
3257;SDS011;1641;51.306;12.384;2023-03-26T21:12:32;9.30;;;5.82;;
3257;SDS011;1641;51.306;12.384;2023-03-26T21:20:49;3.05;;;2.38;;
3257;SDS011;1641;51.306;12.384;2023-03-26T21:23:39;5.03;;;2.53;;
3257;SDS011;1641;51.306;12.384;2023-03-26T21:26:43;3.75;;;2.60;;
3257;SDS011;1641;51.306;12.384;2023-03-26T21:32:08;4.15;;;2.85;;
3257;SDS011;1641;51.306;12.384;2023-03-26T21:34:35;6.88;;;3.55;;
3257;SDS011;1641;51.306;12.384;2023-03-26T21:37:01;6.80;;;3.25;;
3257;SDS011;1641;51.306;12.384;2023-03-26T21:39:27;4.47;;;3.35;;
3257;SDS011;1641;51.306;12.384;2023-03-26T21:41:56;5.32;;;3.40;;
3257;SDS011;1641;51.306;12.384;2023-03-26T21:44:22;7.50;;;4.57;;
3257;SDS011;1641;51.306;12.384;2023-03-26T21:46:49;8.52;;;4.88;;
3257;SDS011;1641;51.306;12.384;2023-03-26T21:49:15;5.10;;;4.55;;
3257;SDS011;1641;51.306;12.384;2023-03-26T21:51:41;8.70;;;5.82;;
3257;SDS011;1641;51.306;12.384;2023-03-26T21:54:16;7.63;;;5.65;;
3257;SDS011;1641;51.306;12.384;2023-03-26T21:56:49;8.85;;;5.65;;
3257;SDS011;1641;51.306;12.384;2023-03-26T21:59:35;7.22;;;5.10;;
3257;SDS011;1641;51.306;12.384;2023-03-26T22:02:26;8.35;;;5.15;;
3257;SDS011;1641;51.306;12.384;2023-03-26T22:05:01;6.95;;;5.20;;
3257;SDS011;1641;51.306;12.384;2023-03-26T22:07:31;7.57;;;4.93;;
3257;SDS011;1641;51.306;12.384;2023-03-26T22:10:05;5.88;;;3.80;;
3257;SDS011;1641;51.306;12.384;2023-03-26T22:12:31;6.82;;;3.85;;